createdAt,value
2023-02-02T00:00:20.113Z,84.03
2023-02-02T00:03:22.311Z,93.18
2023-02-02T00:06:26.894Z,89.25
2023-02-02T00:09:31.508Z,88.28
2023-02-02T00:12:33.693Z,92.63
2023-02-02T00:15:35.888Z,83.57
2023-02-02T00:18:38.050Z,91.80
2023-02-02T00:21:40.592Z,89.30
2023-02-02T00:24:42.832Z,87.65
2023-02-02T00:27:45.074Z,91.15
2023-02-02T00:30:47.255Z,86.00
2023-02-02T00:33:50.837Z,96.95
2023-02-02T00:36:53.273Z,93.55
2023-02-02T00:39:55.464Z,89.43
2023-02-02T00:42:57.733Z,94.13
2023-02-02T00:46:00.222Z,89.10
2023-02-02T00:49:02.504Z,88.05
2023-02-02T00:52:04.813Z,92.78
2023-02-02T00:55:08.057Z,83.35
2023-02-02T00:58:10.206Z,86.47
2023-02-02T01:01:21.855Z,93.22
2023-02-02T01:04:24.103Z,87.00
2023-02-02T01:07:26.416Z,89.13
2023-02-02T01:10:28.931Z,83.60
2023-02-02T01:13:31.137Z,85.03
2023-02-02T01:16:33.323Z,96.00
2023-02-02T01:19:36.404Z,90.65
2023-02-02T01:22:38.759Z,91.57
2023-02-02T01:25:41.017Z,88.28
2023-02-02T01:28:43.628Z,87.57
2023-02-02T01:31:45.939Z,89.93
2023-02-02T01:34:48.184Z,84.35
2023-02-02T01:37:50.311Z,85.65
2023-02-02T01:40:55.956Z,86.72
2023-02-02T01:44:04.589Z,82.05
2023-02-02T01:47:06.902Z,90.68
2023-02-02T01:50:11.741Z,88.03
2023-02-02T01:53:14.005Z,88.80
2023-02-02T01:56:26.953Z,82.88
2023-02-02T01:59:31.116Z,82.72
2023-02-02T02:02:33.655Z,83.80
2023-02-02T02:05:43.904Z,82.75
2023-02-02T02:11:54.231Z,82.72
2023-02-02T02:15:15.826Z,83.20
2023-02-02T02:18:40.983Z,92.65
2023-02-02T02:22:29.852Z,84.80
2023-02-02T02:25:59.748Z,79.80
2023-02-02T02:29:04.727Z,74.25
2023-02-02T02:32:27.452Z,83.75
2023-02-02T02:35:39.968Z,81.32
2023-02-02T02:38:51.809Z,90.10
2023-02-02T02:42:00.551Z,83.32
2023-02-02T02:45:04.914Z,77.18
2023-02-02T02:48:10.684Z,83.65
2023-02-02T02:51:51.023Z,79.57
2023-02-02T02:58:21.491Z,70.25
2023-02-02T03:01:48.289Z,75.53
2023-02-02T03:04:56.628Z,83.30
2023-02-02T03:08:04.491Z,74.40
2023-02-02T03:11:09.872Z,83.18
2023-02-02T03:14:12.752Z,79.45
2023-02-02T03:17:14.949Z,76.88
2023-02-02T03:20:17.843Z,74.28
2023-02-02T03:23:20.051Z,81.03
2023-02-02T03:26:22.288Z,82.18
2023-02-02T03:29:24.780Z,76.80
2023-02-02T03:32:26.994Z,80.07
2023-02-02T03:35:29.246Z,79.47
2023-02-02T03:38:31.426Z,79.82
2023-02-02T03:41:33.500Z,74.57
2023-02-02T03:44:35.798Z,78.22
2023-02-02T03:47:38.070Z,77.05
2023-02-02T03:50:40.285Z,81.18
2023-02-02T03:53:47.953Z,78.18
2023-02-02T03:56:50.244Z,84.38
2023-02-02T03:59:52.395Z,78.85
2023-02-02T04:02:55.091Z,79.95
2023-02-02T04:05:57.602Z,79.72
2023-02-02T04:08:59.788Z,88.38
2023-02-02T04:12:02.047Z,78.95
2023-02-02T04:15:04.600Z,76.63
2023-02-02T04:18:06.900Z,84.85
2023-02-02T04:21:09.582Z,77.75
2023-02-02T04:24:13.389Z,78.68
2023-02-02T04:27:15.520Z,75.85
2023-02-02T04:30:20.023Z,74.70
2023-02-02T04:33:23.423Z,80.70
2023-02-02T04:36:25.648Z,78.95
2023-02-02T04:39:27.786Z,77.80
2023-02-02T04:42:32.298Z,81.97
2023-02-02T04:45:35.041Z,73.95
2023-02-02T04:48:37.721Z,81.85
2023-02-02T04:51:41.116Z,81.45
2023-02-02T04:54:43.233Z,82.55
2023-02-02T04:57:45.497Z,85.50
2023-02-02T05:00:47.763Z,78.95
2023-02-02T05:03:49.997Z,80.28
2023-02-02T05:06:52.184Z,77.70
2023-02-02T05:09:54.294Z,85.22
2023-02-02T05:12:56.756Z,81.03
2023-02-02T05:15:58.812Z,69.43
2023-02-02T05:19:00.916Z,79.47
2023-02-02T05:22:03.052Z,72.00
2023-02-02T05:25:06.895Z,71.38
2023-02-02T05:28:09.733Z,77.05
2023-02-02T05:31:12.101Z,83.88
2023-02-02T05:34:14.335Z,80.90
2023-02-02T05:37:16.566Z,78.72
2023-02-02T05:40:18.911Z,81.50
2023-02-02T05:43:24.363Z,84.38
2023-02-02T05:46:26.491Z,78.97
2023-02-02T05:49:28.783Z,86.18
2023-02-02T05:52:35.165Z,94.63
2023-02-02T05:55:37.539Z,96.50
2023-02-02T05:58:39.851Z,90.70
2023-02-02T06:01:41.996Z,90.60
2023-02-02T06:04:44.198Z,87.00
2023-02-02T06:07:46.323Z,73.65
2023-02-02T06:10:48.512Z,76.05
2023-02-02T06:13:50.752Z,76.07
2023-02-02T06:16:52.960Z,86.97
2023-02-02T06:19:55.160Z,89.28
2023-02-02T06:22:57.286Z,85.25
2023-02-02T06:26:00.712Z,76.68
2023-02-02T06:29:03.122Z,89.15
2023-02-02T06:32:05.428Z,80.95
2023-02-02T06:35:08.341Z,88.78
2023-02-02T06:38:11.467Z,79.75
2023-02-02T06:41:13.712Z,86.32
2023-02-02T06:44:15.887Z,82.53
2023-02-02T06:47:18.076Z,94.65
2023-02-02T06:50:20.408Z,82.70
2023-02-02T06:53:23.392Z,88.28
2023-02-02T06:56:25.759Z,81.05
2023-02-02T06:59:27.893Z,87.85
2023-02-02T07:02:30.059Z,79.55
2023-02-02T07:05:32.442Z,86.25
2023-02-02T07:08:34.757Z,91.55
2023-02-02T07:11:38.523Z,91.18
2023-02-02T07:14:45.538Z,93.55
2023-02-02T07:17:47.725Z,84.85
2023-02-02T07:20:50.057Z,90.43
2023-02-02T07:23:52.233Z,94.43
2023-02-02T07:26:54.423Z,105.82
2023-02-02T07:29:56.653Z,96.13
2023-02-02T07:32:58.933Z,92.32
2023-02-02T07:36:02.093Z,96.10
2023-02-02T07:39:05.445Z,96.43
2023-02-02T07:42:08.780Z,90.53
2023-02-02T07:45:27.244Z,100.30
2023-02-02T07:48:30.964Z,99.43
2023-02-02T07:51:33.265Z,101.53
2023-02-02T07:54:35.528Z,99.95
2023-02-02T07:57:37.874Z,97.43
2023-02-02T08:00:40.037Z,93.60
2023-02-02T08:03:45.782Z,92.60
2023-02-02T08:06:48.442Z,90.43
2023-02-02T08:09:51.727Z,98.57
2023-02-02T08:12:54.000Z,94.50
2023-02-02T08:15:58.592Z,94.20
2023-02-02T08:19:01.183Z,99.30
2023-02-02T08:22:03.472Z,91.93
2023-02-02T08:25:06.234Z,93.15
2023-02-02T08:28:08.420Z,89.40
2023-02-02T08:31:17.887Z,90.72
2023-02-02T08:34:20.117Z,97.93
2023-02-02T08:37:22.264Z,89.93
2023-02-02T08:40:25.451Z,86.70
2023-02-02T08:43:29.483Z,90.28
2023-02-02T08:46:31.874Z,89.88
2023-02-02T08:49:34.069Z,90.65
2023-02-02T08:52:36.180Z,90.28
2023-02-02T08:55:38.688Z,83.68
2023-02-02T08:58:48.511Z,88.88
2023-02-02T09:01:50.738Z,92.65
2023-02-02T09:04:52.905Z,87.15
2023-02-02T09:07:55.153Z,91.53
2023-02-02T09:11:02.492Z,88.60
2023-02-02T09:14:06.817Z,84.15
2023-02-02T09:17:09.177Z,92.25
2023-02-02T09:20:11.998Z,91.25
2023-02-02T09:23:14.088Z,84.60
2023-02-02T09:26:16.306Z,86.10
2023-02-02T09:29:18.506Z,85.65
2023-02-02T09:32:20.677Z,82.30
2023-02-02T09:35:23.235Z,88.78
2023-02-02T09:38:26.193Z,85.07
2023-02-02T09:41:34.125Z,78.72
2023-02-02T09:44:39.307Z,78.55
2023-02-02T09:48:19.558Z,82.13
2023-02-02T09:54:39.252Z,80.63
2023-02-02T09:57:55.552Z,78.30
2023-02-02T10:01:17.984Z,74.70
2023-02-02T10:04:37.227Z,75.38
2023-02-02T10:07:50.218Z,80.75
2023-02-02T10:10:53.370Z,79.50
2023-02-02T10:13:59.978Z,70.63
2023-02-02T10:17:23.373Z,78.97
2023-02-02T10:20:55.813Z,78.22
2023-02-02T10:23:59.662Z,77.05
2023-02-02T10:27:08.923Z,73.95
2023-02-02T10:30:19.916Z,68.65
2023-02-02T10:33:38.846Z,69.28
2023-02-02T10:36:40.960Z,69.95
2023-02-02T10:40:12.072Z,68.60
2023-02-02T10:43:36.078Z,69.55
2023-02-02T10:46:42.813Z,67.38
2023-02-02T10:49:45.535Z,63.33
2023-02-02T10:53:13.217Z,68.32
2023-02-02T10:56:18.218Z,62.88
2023-02-02T10:59:28.427Z,66.82
2023-02-02T11:05:51.409Z,49.70
2023-02-02T11:08:59.573Z,56.80
2023-02-02T11:12:05.595Z,58.72
2023-02-02T11:15:23.272Z,52.47
2023-02-02T11:18:30.891Z,52.03
2023-02-02T11:21:34.201Z,54.00
2023-02-02T11:24:49.976Z,51.53
2023-02-02T11:27:52.446Z,50.58
2023-02-02T11:30:55.342Z,52.28
2023-02-02T11:34:20.376Z,49.28
2023-02-02T11:37:25.087Z,52.88
2023-02-02T11:40:31.405Z,47.72
2023-02-02T11:43:35.280Z,44.40
2023-02-02T11:46:38.768Z,44.33
2023-02-02T11:49:44.240Z,44.20
2023-02-02T11:52:46.525Z,41.63
2023-02-02T11:55:48.844Z,43.47
2023-02-02T11:58:52.917Z,41.10
2023-02-02T12:02:13.231Z,34.83
2023-02-02T12:08:35.434Z,33.47
2023-02-02T12:11:56.365Z,33.92
2023-02-02T12:15:04.573Z,31.85
2023-02-02T12:18:25.691Z,34.50
2023-02-02T12:21:57.191Z,30.02
2023-02-02T12:25:31.558Z,31.80
2023-02-02T12:28:58.504Z,24.75
2023-02-02T12:32:13.371Z,28.95
2023-02-02T12:35:28.130Z,29.30
2023-02-02T12:38:45.059Z,26.05
2023-02-02T12:41:56.167Z,27.48
2023-02-02T12:45:34.997Z,26.20
2023-02-02T12:48:51.603Z,26.92
2023-02-02T12:52:35.219Z,27.38
2023-02-02T12:55:52.519Z,26.58
2023-02-02T12:58:59.428Z,23.67
2023-02-02T13:02:26.298Z,24.27
2023-02-02T13:06:06.193Z,23.33
2023-02-02T13:09:19.712Z,26.45
2023-02-02T13:12:24.263Z,23.98
2023-02-02T13:15:34.464Z,23.85
2023-02-02T13:21:43.401Z,23.38
2023-02-02T13:24:48.323Z,24.52
2023-02-02T13:27:52.960Z,23.90
2023-02-02T13:30:59.206Z,26.00
2023-02-02T13:34:16.858Z,23.17
2023-02-02T13:37:26.681Z,23.70
2023-02-02T13:40:41.939Z,25.30
2023-02-02T13:44:16.637Z,21.85
2023-02-02T13:47:37.406Z,21.95
2023-02-02T13:51:01.157Z,23.15
2023-02-02T13:54:38.988Z,23.10
2023-02-02T13:58:05.342Z,24.95
2023-02-02T14:01:11.051Z,21.42
2023-02-02T14:04:28.526Z,22.58
2023-02-02T14:07:42.946Z,24.17
2023-02-02T14:10:58.440Z,25.02
2023-02-02T14:14:35.231Z,21.30
2023-02-02T14:17:37.532Z,21.52
2023-02-02T14:20:49.212Z,22.63
2023-02-02T14:23:55.594Z,20.95
2023-02-02T14:27:00.045Z,20.40
2023-02-02T14:30:17.680Z,22.50
2023-02-02T14:33:22.599Z,24.67
2023-02-02T14:36:26.148Z,21.90
2023-02-02T14:39:34.258Z,20.83
2023-02-02T14:43:49.805Z,16.70
2023-02-02T14:46:52.053Z,18.90
2023-02-02T14:49:57.721Z,18.23
2023-02-02T14:53:05.031Z,20.05
2023-02-02T14:56:17.615Z,19.88
2023-02-02T14:59:26.598Z,18.00
2023-02-02T15:02:38.863Z,18.42
2023-02-02T15:05:46.390Z,16.98
2023-02-02T15:09:33.739Z,16.67
2023-02-02T15:12:43.463Z,18.40
2023-02-02T15:15:48.863Z,18.83
2023-02-02T15:19:00.272Z,16.10
2023-02-02T15:22:26.923Z,16.52
2023-02-02T15:25:45.853Z,16.65
2023-02-02T15:28:52.079Z,15.18
2023-02-02T15:31:55.858Z,15.73
2023-02-02T15:35:04.986Z,15.32
2023-02-02T15:38:15.371Z,13.57
2023-02-02T15:41:34.115Z,15.07
2023-02-02T15:44:37.908Z,18.35
2023-02-02T15:47:42.632Z,13.20
2023-02-02T15:50:46.759Z,13.50
2023-02-02T15:53:51.920Z,14.57
2023-02-02T15:56:55.569Z,13.32
2023-02-02T15:59:58.595Z,13.48
2023-02-02T16:03:14.653Z,12.43
2023-02-02T16:06:18.407Z,13.45
2023-02-02T16:09:27.289Z,11.90
2023-02-02T16:12:29.450Z,11.82
2023-02-02T16:15:32.933Z,14.95
2023-02-02T16:18:36.099Z,11.63
2023-02-02T16:21:53.571Z,12.35
2023-02-02T16:24:59.461Z,11.48
2023-02-02T16:28:03.265Z,12.32
2023-02-02T16:31:07.092Z,11.57
2023-02-02T16:34:18.607Z,9.13
2023-02-02T16:37:29.880Z,12.02
2023-02-02T16:40:32.023Z,10.05
2023-02-02T16:43:36.026Z,9.38
2023-02-02T16:46:49.728Z,9.75
2023-02-02T16:50:28.614Z,9.95
2023-02-02T16:53:31.216Z,9.27
2023-02-02T16:56:40.337Z,10.38
2023-02-02T16:59:48.831Z,8.93
2023-02-02T17:02:58.454Z,9.93
2023-02-02T17:06:01.882Z,8.68
2023-02-02T17:09:38.047Z,9.93
2023-02-02T17:12:40.244Z,10.05
2023-02-02T17:15:42.440Z,9.30
2023-02-02T17:18:44.658Z,8.45
2023-02-02T17:21:49.624Z,7.45
2023-02-02T17:24:52.734Z,9.32
2023-02-02T17:27:56.054Z,10.75
2023-02-02T17:31:00.174Z,8.88
2023-02-02T17:34:02.432Z,8.70
2023-02-02T17:37:04.534Z,8.48
2023-02-02T17:40:07.404Z,8.38
2023-02-02T17:43:12.095Z,9.15
2023-02-02T17:46:14.390Z,8.40
2023-02-02T17:49:16.549Z,10.52
2023-02-02T17:52:18.769Z,9.07
2023-02-02T17:55:27.830Z,8.38
2023-02-02T17:58:30.106Z,7.55
2023-02-02T18:01:32.554Z,7.50
2023-02-02T18:04:35.890Z,9.13
2023-02-02T18:07:38.030Z,8.70
2023-02-02T18:10:41.583Z,9.43
2023-02-02T18:13:44.378Z,8.90
2023-02-02T18:16:46.469Z,7.90
2023-02-02T18:19:51.276Z,8.27
2023-02-02T18:22:53.677Z,10.10
2023-02-02T18:25:55.821Z,7.88
2023-02-02T18:28:59.275Z,9.20
2023-02-02T18:32:02.382Z,7.38
2023-02-02T18:35:06.162Z,9.20
2023-02-02T18:38:08.771Z,9.48
2023-02-02T18:41:15.083Z,10.32
2023-02-02T18:44:17.418Z,7.63
2023-02-02T18:47:19.649Z,8.50
2023-02-02T18:50:22.252Z,10.23
2023-02-02T18:53:24.666Z,7.03
2023-02-02T18:56:28.138Z,6.90
2023-02-02T18:59:32.397Z,9.77
2023-02-02T19:02:34.598Z,9.70
2023-02-02T19:06:02.683Z,7.78
2023-02-02T19:09:06.169Z,9.15
2023-02-02T19:12:13.888Z,7.68
2023-02-02T19:15:16.048Z,6.90
2023-02-02T19:18:20.833Z,7.72
2023-02-02T19:21:23.140Z,9.57
2023-02-02T19:24:27.329Z,8.45
2023-02-02T19:27:31.713Z,7.55
2023-02-02T19:30:33.969Z,7.00
2023-02-02T19:33:40.578Z,7.40
2023-02-02T19:36:46.856Z,8.65
2023-02-02T19:39:50.989Z,8.65
2023-02-02T19:43:08.013Z,6.95
2023-02-02T19:46:25.651Z,9.18
2023-02-02T19:49:34.286Z,9.77
2023-02-02T19:52:37.591Z,7.35
2023-02-02T19:55:42.010Z,9.55
2023-02-02T19:58:49.330Z,7.75
2023-02-02T20:01:52.535Z,7.88
2023-02-02T20:05:08.263Z,7.47
2023-02-02T20:08:38.174Z,9.45
2023-02-02T20:11:42.497Z,8.25
2023-02-02T20:14:44.815Z,9.68
2023-02-02T20:17:47.061Z,8.73
2023-02-02T20:20:57.273Z,12.63
2023-02-02T20:23:59.580Z,10.43
2023-02-02T20:27:11.846Z,8.00
2023-02-02T20:30:26.788Z,10.07
2023-02-02T20:33:29.147Z,9.20
2023-02-02T20:36:39.093Z,10.75
2023-02-02T20:39:47.941Z,9.80
2023-02-02T20:42:50.716Z,9.75
2023-02-02T20:45:53.001Z,12.18
2023-02-02T20:48:55.266Z,10.85
2023-02-02T20:52:00.076Z,13.07
2023-02-02T20:55:02.405Z,15.00
2023-02-02T20:58:05.551Z,12.45
2023-02-02T21:01:08.254Z,14.93
2023-02-02T21:04:10.597Z,15.13
2023-02-02T21:07:13.219Z,16.95
2023-02-02T21:10:15.793Z,19.67
2023-02-02T21:13:17.932Z,18.17
2023-02-02T21:16:20.149Z,18.38
2023-02-02T21:19:22.315Z,19.25
2023-02-02T21:22:24.453Z,19.45
2023-02-02T21:25:26.697Z,20.65
2023-02-02T21:28:31.362Z,20.00
2023-02-02T21:31:35.424Z,22.42
2023-02-02T21:34:37.937Z,22.98
2023-02-02T21:37:40.687Z,23.30
2023-02-02T21:40:42.945Z,23.20
2023-02-02T21:43:45.199Z,21.73
2023-02-02T21:46:52.549Z,29.08
2023-02-02T21:49:57.098Z,24.30
2023-02-02T21:53:18.553Z,22.00
2023-02-02T21:56:29.162Z,28.75
2023-02-02T21:59:36.891Z,26.83
2023-02-02T22:02:44.627Z,30.30
2023-02-02T22:05:47.100Z,28.33
2023-02-02T22:08:49.840Z,29.23
2023-02-02T22:12:02.167Z,32.97
2023-02-02T22:15:18.495Z,30.75
2023-02-02T22:18:24.985Z,36.42
2023-02-02T22:21:27.315Z,35.58
2023-02-02T22:24:29.713Z,32.78
2023-02-02T22:27:41.678Z,30.88
2023-02-02T22:30:44.262Z,39.10
2023-02-02T22:33:46.452Z,40.08
2023-02-02T22:36:48.627Z,42.83
2023-02-02T22:39:50.825Z,42.13
2023-02-02T22:42:55.427Z,41.25
2023-02-02T22:45:57.646Z,41.70
2023-02-02T22:48:59.832Z,48.67
2023-02-02T22:52:01.930Z,50.78
2023-02-02T22:55:04.170Z,47.90
2023-02-02T22:58:06.641Z,52.45
2023-02-02T23:01:09.561Z,45.20
2023-02-02T23:04:11.805Z,53.53
2023-02-02T23:07:14.112Z,52.00
2023-02-02T23:10:19.373Z,52.13
2023-02-02T23:13:21.532Z,57.17
2023-02-02T23:16:23.888Z,57.03
2023-02-02T23:19:26.060Z,57.05
2023-02-02T23:22:28.115Z,60.45
2023-02-02T23:25:30.298Z,57.60
2023-02-02T23:28:32.404Z,67.35
2023-02-02T23:31:34.696Z,64.03
2023-02-02T23:34:36.876Z,62.05
2023-02-02T23:37:39.189Z,63.03
2023-02-02T23:40:41.285Z,65.53
2023-02-02T23:43:43.418Z,68.35
2023-02-02T23:46:45.683Z,69.97
2023-02-02T23:49:47.930Z,67.00
2023-02-02T23:52:50.098Z,75.10
2023-02-02T23:55:52.376Z,72.45
2023-02-02T23:58:54.523Z,69.93
